createdAt,value
2022-09-06T00:01:29.258Z,65.72
2022-09-06T00:03:58.516Z,65.79
2022-09-06T00:06:26.388Z,65.48
2022-09-06T00:08:54.244Z,65.87
2022-09-06T00:11:22.531Z,65.47
2022-09-06T00:13:50.560Z,65.69
2022-09-06T00:16:20.880Z,66.26
2022-09-06T00:18:48.880Z,66.23
2022-09-06T00:21:21.263Z,66.42
2022-09-06T00:23:49.167Z,66.77
2022-09-06T00:26:17.310Z,67.38
2022-09-06T00:28:45.717Z,67.54
2022-09-06T00:31:15.962Z,67.71
2022-09-06T00:33:44.129Z,67.80
2022-09-06T00:36:13.486Z,68.01
2022-09-06T00:38:43.454Z,67.72
2022-09-06T00:41:14.232Z,67.68
2022-09-06T00:43:42.728Z,67.53
2022-09-06T00:46:13.267Z,67.92
2022-09-06T00:48:42.314Z,68.21
2022-09-06T00:51:13.681Z,67.77
2022-09-06T00:53:43.040Z,66.73
2022-09-06T00:56:11.334Z,66.00
2022-09-06T00:58:39.658Z,64.21
2022-09-06T01:01:08.050Z,63.67
2022-09-06T01:03:37.189Z,63.15
2022-09-06T01:06:15.994Z,62.80
2022-09-06T01:09:00.015Z,62.32
2022-09-06T01:11:57.348Z,61.96
2022-09-06T01:14:37.938Z,61.27
2022-09-06T01:17:17.695Z,60.73
2022-09-06T01:20:09.355Z,60.78
2022-09-06T01:22:58.493Z,60.95
2022-09-06T01:25:39.551Z,61.05
2022-09-06T01:28:28.941Z,62.19
2022-09-06T01:31:06.186Z,62.33
2022-09-06T01:33:42.527Z,61.62
2022-09-06T01:36:14.145Z,60.95
2022-09-06T01:38:42.338Z,60.59
2022-09-06T01:41:10.998Z,60.44
2022-09-06T01:43:43.470Z,60.79
2022-09-06T01:46:18.278Z,61.35
2022-09-06T01:49:05.788Z,61.42
2022-09-06T01:51:42.688Z,62.06
2022-09-06T01:54:27.330Z,61.92
2022-09-06T01:57:05.556Z,62.06
2022-09-06T01:59:58.639Z,62.51
2022-09-06T02:02:33.140Z,62.32
2022-09-06T02:05:04.797Z,63.23
2022-09-06T02:07:35.181Z,63.42
2022-09-06T02:10:09.449Z,63.47
2022-09-06T02:12:41.745Z,59.95
2022-09-06T02:15:15.651Z,57.35
2022-09-06T02:17:49.833Z,57.37
2022-09-06T02:20:21.677Z,56.75
2022-09-06T02:22:52.454Z,56.41
2022-09-06T02:25:25.640Z,56.41
2022-09-06T02:27:54.399Z,56.45
2022-09-06T02:30:24.113Z,56.43
2022-09-06T02:32:57.370Z,56.43
2022-09-06T02:35:25.492Z,56.26
2022-09-06T02:37:53.451Z,55.41
2022-09-06T02:40:21.610Z,55.10
2022-09-06T02:42:49.510Z,54.47
2022-09-06T02:45:17.420Z,54.74
2022-09-06T02:47:46.582Z,54.63
2022-09-06T02:50:15.320Z,54.18
2022-09-06T02:52:43.187Z,54.32
2022-09-06T02:55:11.300Z,54.88
2022-09-06T02:57:39.435Z,55.41
2022-09-06T03:00:08.524Z,55.56
2022-09-06T03:02:36.535Z,55.19
2022-09-06T03:05:06.621Z,55.19
2022-09-06T03:07:34.530Z,54.82
2022-09-06T03:10:02.494Z,55.40
2022-09-06T03:12:30.279Z,55.43
2022-09-06T03:14:58.212Z,55.22
2022-09-06T03:17:26.136Z,55.27
2022-09-06T03:19:54.351Z,55.07
2022-09-06T03:22:23.618Z,55.29
2022-09-06T03:24:51.767Z,55.86
2022-09-06T03:27:19.703Z,55.99
2022-09-06T03:29:48.042Z,57.14
2022-09-06T03:32:16.246Z,57.39
2022-09-06T03:34:44.131Z,57.37
2022-09-06T03:37:12.285Z,57.69
2022-09-06T03:39:41.751Z,58.06
2022-09-06T03:42:09.781Z,59.46
2022-09-06T03:44:37.872Z,59.40
2022-09-06T03:47:06.440Z,60.16
2022-09-06T03:49:34.367Z,59.11
2022-09-06T03:52:02.782Z,59.98
2022-09-06T03:54:30.851Z,61.00
2022-09-06T03:57:00.093Z,61.10
2022-09-06T03:59:28.004Z,61.19
2022-09-06T04:01:56.007Z,61.83
2022-09-06T04:04:23.994Z,61.12
2022-09-06T04:06:51.834Z,60.90
2022-09-06T04:09:19.790Z,60.23
2022-09-06T04:11:47.736Z,60.07
2022-09-06T04:14:17.061Z,60.36
2022-09-06T04:16:45.020Z,59.71
2022-09-06T04:19:13.039Z,60.42
2022-09-06T04:21:40.902Z,60.33
2022-09-06T04:24:09.008Z,60.46
2022-09-06T04:26:36.883Z,60.68
2022-09-06T04:29:05.015Z,60.92
2022-09-06T04:31:34.850Z,61.08
2022-09-06T04:34:02.751Z,61.22
2022-09-06T04:36:30.642Z,60.94
2022-09-06T04:38:58.503Z,61.23
2022-09-06T04:41:26.400Z,61.65
2022-09-06T04:43:54.399Z,61.69
2022-09-06T04:46:24.913Z,61.82
2022-09-06T04:48:55.465Z,62.71
2022-09-06T04:51:24.643Z,63.28
2022-09-06T04:53:52.786Z,63.32
2022-09-06T04:56:23.097Z,63.72
2022-09-06T04:58:53.762Z,64.53
2022-09-06T05:01:21.760Z,64.80
2022-09-06T05:03:52.175Z,65.19
2022-09-06T05:06:25.525Z,65.42
2022-09-06T05:08:53.839Z,65.10
2022-09-06T05:11:21.733Z,65.37
2022-09-06T05:16:18.310Z,67.14
2022-09-06T05:18:46.259Z,66.35
2022-09-06T05:21:14.198Z,66.88
2022-09-06T05:23:43.990Z,67.12
2022-09-06T05:26:12.084Z,67.89
2022-09-06T05:28:39.955Z,68.26
2022-09-06T05:31:10.695Z,67.94
2022-09-06T05:33:39.271Z,67.22
2022-09-06T05:36:08.186Z,67.19
2022-09-06T05:38:36.394Z,66.86
2022-09-06T05:41:06.032Z,66.63
2022-09-06T05:43:34.024Z,66.78
2022-09-06T05:46:02.135Z,66.50
2022-09-06T05:48:36.055Z,66.38
2022-09-06T05:51:07.007Z,66.15
2022-09-06T05:53:36.491Z,65.14
2022-09-06T05:56:07.017Z,65.44
2022-09-06T05:58:34.997Z,65.16
2022-09-06T06:01:08.054Z,64.70
2022-09-06T06:03:36.031Z,64.71
2022-09-06T06:06:03.973Z,64.42
2022-09-06T06:08:32.046Z,63.72
2022-09-06T06:11:01.403Z,63.19
2022-09-06T06:13:35.148Z,63.38
2022-09-06T06:16:04.423Z,63.29
2022-09-06T06:18:32.400Z,62.99
2022-09-06T06:21:12.308Z,62.97
2022-09-06T06:23:41.505Z,62.58
2022-09-06T06:26:10.937Z,63.27
2022-09-06T06:28:41.009Z,63.94
2022-09-06T06:31:12.127Z,63.08
2022-09-06T06:33:40.881Z,62.11
2022-09-06T06:36:21.723Z,61.80
2022-09-06T06:38:50.907Z,61.58
2022-09-06T06:41:21.314Z,61.17
2022-09-06T06:43:53.164Z,61.53
2022-09-06T06:46:22.265Z,61.83
2022-09-06T06:48:54.555Z,61.64
2022-09-06T06:51:25.677Z,61.81
2022-09-06T06:53:54.069Z,61.97
2022-09-06T06:56:24.774Z,61.70
2022-09-06T06:58:57.638Z,62.10
2022-09-06T07:01:27.412Z,62.02
2022-09-06T07:03:55.772Z,61.93
2022-09-06T07:09:12.729Z,61.52
2022-09-06T07:11:40.660Z,60.72
2022-09-06T07:14:09.971Z,59.72
2022-09-06T07:16:37.902Z,59.77
2022-09-06T07:19:05.994Z,59.19
2022-09-06T07:21:37.503Z,59.17
2022-09-06T07:24:09.246Z,58.47
2022-09-06T07:26:39.700Z,57.87
2022-09-06T07:29:09.804Z,58.50
2022-09-06T07:34:27.089Z,57.97
2022-09-06T07:36:55.121Z,58.11
2022-09-06T07:39:24.426Z,58.01
2022-09-06T07:41:52.372Z,57.34
2022-09-06T07:44:21.640Z,56.83
2022-09-06T07:46:50.033Z,57.54
2022-09-06T07:49:18.113Z,58.63
2022-09-06T07:51:46.025Z,58.59
2022-09-06T07:54:30.030Z,58.97
2022-09-06T07:56:58.608Z,57.47
2022-09-06T07:59:28.120Z,57.36
2022-09-06T08:01:56.121Z,57.18
2022-09-06T08:04:24.196Z,58.27
2022-09-06T08:09:41.578Z,57.60
2022-09-06T08:12:09.773Z,57.33
2022-09-06T08:14:39.199Z,56.29
2022-09-06T08:17:07.228Z,56.55
2022-09-06T08:19:35.512Z,56.11
2022-09-06T08:22:03.529Z,55.53
2022-09-06T08:24:31.765Z,55.68
2022-09-06T08:26:59.726Z,55.64
2022-09-06T08:29:27.904Z,55.62
2022-09-06T08:31:57.375Z,55.06
2022-09-06T08:34:25.466Z,55.11
2022-09-06T08:36:53.571Z,53.81
2022-09-06T08:39:21.820Z,54.59
2022-09-06T08:41:54.176Z,55.22
2022-09-06T08:47:15.859Z,53.81
2022-09-06T08:49:46.230Z,53.90
2022-09-06T08:53:06.222Z,53.02
2022-09-06T08:55:38.192Z,53.31
2022-09-06T08:58:29.055Z,53.53
2022-09-06T09:01:01.891Z,52.90
2022-09-06T09:03:34.262Z,52.52
2022-09-06T09:06:05.314Z,52.53
2022-09-06T09:08:40.845Z,52.87
2022-09-06T09:11:11.490Z,52.41
2022-09-06T09:13:44.801Z,52.18
2022-09-06T09:16:12.851Z,52.25
2022-09-06T09:18:45.567Z,51.80
2022-09-06T09:21:14.580Z,51.97
2022-09-06T09:23:42.588Z,51.88
2022-09-06T09:26:15.236Z,51.64
2022-09-06T09:29:04.857Z,51.46
2022-09-06T09:31:38.617Z,50.39
2022-09-06T09:34:12.416Z,50.57
2022-09-06T09:36:41.235Z,50.76
2022-09-06T09:39:13.033Z,50.98
2022-09-06T09:41:43.677Z,50.16
2022-09-06T09:44:18.514Z,50.53
2022-09-06T09:46:46.618Z,50.46
2022-09-06T09:49:28.958Z,50.38
2022-09-06T09:52:07.177Z,50.26
2022-09-06T09:54:38.507Z,50.03
2022-09-06T09:57:11.858Z,50.32
2022-09-06T09:59:45.383Z,50.34
2022-09-06T10:02:23.145Z,49.29
2022-09-06T10:04:54.936Z,49.12
2022-09-06T10:07:24.839Z,49.18
2022-09-06T10:10:00.290Z,48.79
2022-09-06T10:12:32.456Z,49.44
2022-09-06T10:15:02.488Z,47.98
2022-09-06T10:17:34.561Z,48.06
2022-09-06T10:20:08.673Z,47.55
2022-09-06T10:22:47.152Z,46.86
2022-09-06T10:25:49.701Z,47.27
2022-09-06T10:28:36.470Z,47.77
2022-09-06T10:31:31.783Z,47.65
2022-09-06T10:34:08.691Z,48.09
2022-09-06T10:36:40.831Z,46.88
2022-09-06T10:39:24.068Z,46.82
2022-09-06T10:42:10.112Z,47.55
2022-09-06T10:44:55.488Z,47.00
2022-09-06T10:47:33.465Z,46.68
2022-09-06T10:50:05.102Z,46.42
2022-09-06T10:52:40.177Z,45.93
2022-09-06T10:55:12.663Z,45.14
2022-09-06T11:00:37.076Z,45.48
2022-09-06T11:06:08.501Z,45.06
2022-09-06T11:11:23.254Z,43.71
2022-09-06T11:13:51.381Z,44.40
2022-09-06T11:16:23.713Z,45.36
2022-09-06T11:18:57.915Z,44.83
2022-09-06T11:21:48.071Z,44.63
2022-09-06T11:24:26.019Z,43.90
2022-09-06T11:27:02.806Z,43.61
2022-09-06T11:29:33.345Z,43.54
2022-09-06T11:32:18.647Z,43.01
2022-09-06T11:34:55.900Z,42.22
2022-09-06T11:37:27.335Z,43.49
2022-09-06T11:43:13.850Z,42.25
2022-09-06T11:45:45.452Z,42.74
2022-09-06T11:48:49.463Z,42.93
2022-09-06T11:51:36.761Z,42.26
2022-09-06T11:54:28.061Z,41.12
2022-09-06T11:57:02.174Z,39.79
2022-09-06T11:59:49.127Z,40.59
2022-09-06T12:02:36.347Z,40.76
2022-09-06T12:05:23.408Z,41.42
2022-09-06T12:08:34.145Z,41.79
2022-09-06T12:11:27.052Z,40.92
2022-09-06T12:14:03.092Z,40.64
2022-09-06T12:17:08.924Z,40.17
2022-09-06T12:19:44.289Z,40.29
2022-09-06T12:22:53.174Z,41.03
2022-09-06T12:25:54.706Z,40.04
2022-09-06T12:28:41.547Z,40.30
2022-09-06T12:31:31.957Z,39.62
2022-09-06T12:34:06.340Z,39.48
2022-09-06T12:36:34.682Z,40.20
2022-09-06T12:39:05.663Z,40.01
2022-09-06T12:41:43.255Z,40.33
2022-09-06T12:44:12.946Z,39.25
2022-09-06T12:46:48.674Z,39.95
2022-09-06T12:49:20.448Z,39.17
2022-09-06T12:51:48.749Z,39.41
2022-09-06T12:54:21.857Z,39.82
2022-09-06T12:56:50.418Z,39.36
2022-09-06T12:59:20.567Z,39.69
2022-09-06T13:01:57.319Z,39.59
2022-09-06T13:04:33.863Z,38.74
2022-09-06T13:07:04.193Z,38.67
2022-09-06T13:09:33.186Z,38.39
2022-09-06T13:12:07.847Z,38.59
2022-09-06T13:14:36.685Z,38.04
2022-09-06T13:17:06.102Z,37.91
2022-09-06T13:19:36.149Z,38.05
2022-09-06T13:22:07.431Z,38.06
2022-09-06T13:24:47.123Z,38.24
2022-09-06T13:27:26.601Z,38.21
2022-09-06T13:29:59.461Z,37.50
2022-09-06T13:32:29.488Z,38.02
2022-09-06T13:34:59.719Z,37.14
2022-09-06T13:37:29.663Z,37.23
2022-09-06T13:39:58.643Z,37.30
2022-09-06T13:42:29.453Z,37.08
2022-09-06T13:45:02.132Z,37.27
2022-09-06T13:47:31.946Z,36.92
2022-09-06T13:50:00.367Z,36.53
2022-09-06T13:52:28.383Z,36.13
2022-09-06T13:54:56.369Z,34.89
2022-09-06T13:57:24.801Z,35.96
2022-09-06T13:59:52.737Z,35.79
2022-09-06T14:02:20.909Z,36.42
2022-09-06T14:04:50.154Z,36.94
2022-09-06T14:07:18.081Z,36.81
2022-09-06T14:09:45.987Z,36.38
2022-09-06T14:12:13.928Z,33.11
2022-09-06T14:14:42.114Z,30.38
2022-09-06T14:17:10.283Z,27.99
2022-09-06T14:19:38.307Z,26.65
2022-09-06T14:22:08.310Z,26.08
2022-09-06T14:24:36.346Z,24.72
2022-09-06T14:27:05.488Z,24.67
2022-09-06T14:29:34.336Z,24.83
2022-09-06T14:32:02.759Z,24.22
2022-09-06T14:34:31.059Z,24.93
2022-09-06T14:36:58.874Z,24.27
2022-09-06T14:39:28.356Z,23.58
2022-09-06T14:41:56.364Z,23.11
2022-09-06T14:44:24.377Z,22.05
2022-09-06T14:46:53.435Z,20.34
2022-09-06T14:49:21.656Z,20.79
2022-09-06T14:51:49.670Z,22.53
2022-09-06T14:54:18.733Z,21.64
2022-09-06T14:56:48.239Z,21.31
2022-09-06T14:59:16.631Z,21.74
2022-09-06T15:01:44.779Z,24.06
2022-09-06T15:04:13.127Z,25.94
2022-09-06T15:06:47.202Z,26.10
2022-09-06T15:09:16.089Z,26.75
2022-09-06T15:11:46.252Z,28.24
2022-09-06T15:14:17.856Z,28.29
2022-09-06T15:16:46.044Z,27.99
2022-09-06T15:19:14.503Z,29.25
2022-09-06T15:21:45.527Z,30.86
2022-09-06T15:24:13.837Z,32.71
2022-09-06T15:26:43.218Z,33.95
2022-09-06T15:29:12.690Z,35.00
2022-09-06T15:31:43.126Z,35.80
2022-09-06T15:34:12.033Z,35.71
2022-09-06T15:36:40.066Z,35.64
2022-09-06T15:39:08.008Z,37.01
2022-09-06T15:41:39.625Z,36.87
2022-09-06T15:44:10.589Z,36.81
2022-09-06T15:46:45.848Z,37.55
2022-09-06T15:49:15.835Z,38.09
2022-09-06T15:51:44.613Z,38.39
2022-09-06T15:54:14.021Z,38.77
2022-09-06T15:56:41.511Z,38.42
2022-09-06T15:59:09.781Z,38.64
2022-09-06T16:01:38.076Z,38.71
2022-09-06T16:04:07.771Z,38.76
2022-09-06T16:06:38.499Z,39.57
2022-09-06T16:09:08.053Z,39.41
2022-09-06T16:11:36.946Z,39.96
2022-09-06T16:14:06.696Z,39.89
2022-09-06T16:16:35.138Z,40.17
2022-09-06T16:19:03.183Z,40.25
2022-09-06T16:21:34.377Z,40.13
2022-09-06T16:24:04.625Z,40.34
2022-09-06T16:26:34.335Z,40.92
2022-09-06T16:29:04.479Z,40.82
2022-09-06T16:31:39.176Z,40.97
2022-09-06T16:34:08.426Z,41.03
2022-09-06T16:36:38.697Z,41.44
2022-09-06T16:39:07.659Z,41.31
2022-09-06T16:41:40.370Z,41.26
2022-09-06T16:44:08.879Z,41.69
2022-09-06T16:46:39.961Z,41.41
2022-09-06T16:49:08.264Z,41.75
2022-09-06T16:51:37.887Z,42.62
2022-09-06T16:54:06.109Z,42.57
2022-09-06T16:56:35.928Z,42.58
2022-09-06T16:59:15.161Z,42.39
2022-09-06T17:01:44.456Z,42.80
2022-09-06T17:04:14.262Z,42.89
2022-09-06T17:09:31.205Z,49.04
2022-09-06T17:11:59.263Z,49.91
2022-09-06T17:14:28.043Z,53.61
2022-09-06T17:17:04.829Z,55.28
2022-09-06T17:19:36.850Z,59.61
2022-09-06T17:22:06.468Z,68.17
2022-09-06T17:24:34.739Z,69.64
2022-09-06T17:27:02.987Z,71.01
2022-09-06T17:29:31.281Z,73.56
2022-09-06T17:31:59.502Z,78.13
2022-09-06T17:34:28.116Z,79.42
2022-09-06T17:36:56.602Z,81.75
2022-09-06T17:39:29.023Z,81.31
2022-09-06T17:41:58.826Z,83.08
2022-09-06T17:44:27.794Z,81.62
2022-09-06T17:47:12.113Z,84.13
2022-09-06T17:49:41.218Z,83.89
2022-09-06T17:52:09.599Z,84.31
2022-09-06T17:54:39.092Z,82.46
2022-09-06T17:57:07.151Z,80.71
2022-09-06T17:59:36.105Z,83.35
2022-09-06T18:02:04.897Z,85.40
2022-09-06T18:04:32.916Z,85.00
2022-09-06T18:07:00.945Z,86.55
2022-09-06T18:09:29.131Z,86.32
2022-09-06T18:11:59.137Z,87.67
2022-09-06T18:14:28.553Z,88.25
2022-09-06T18:16:56.966Z,88.11
2022-09-06T18:19:25.659Z,88.53
2022-09-06T18:21:54.174Z,90.16
2022-09-06T18:24:22.239Z,91.59
2022-09-06T18:26:50.383Z,89.37
2022-09-06T18:29:20.802Z,87.16
2022-09-06T18:31:48.934Z,90.16
2022-09-06T18:34:17.160Z,90.66
2022-09-06T18:36:45.331Z,87.81
2022-09-06T18:39:13.474Z,87.68
2022-09-06T18:41:58.889Z,90.43
2022-09-06T18:44:32.270Z,92.17
2022-09-06T18:47:02.221Z,92.03
2022-09-06T18:49:32.345Z,91.46
2022-09-06T18:52:01.113Z,90.56
2022-09-06T18:54:29.478Z,91.41
2022-09-06T18:56:57.758Z,90.80
2022-09-06T18:59:26.229Z,90.25
2022-09-06T19:01:55.749Z,91.64
2022-09-06T19:04:24.155Z,93.02
2022-09-06T19:06:52.208Z,94.12
2022-09-06T19:09:20.386Z,94.50
2022-09-06T19:11:51.544Z,94.96
2022-09-06T19:14:19.864Z,95.19
2022-09-06T19:16:50.034Z,93.85
2022-09-06T19:19:19.625Z,92.67
2022-09-06T19:21:47.642Z,91.28
2022-09-06T19:24:16.279Z,91.33
2022-09-06T19:26:45.453Z,90.89
2022-09-06T19:29:15.561Z,89.80
2022-09-06T19:31:44.898Z,91.06
2022-09-06T19:34:15.726Z,91.82
2022-09-06T19:36:45.915Z,91.51
2022-09-06T19:39:15.891Z,92.09
2022-09-06T19:41:46.587Z,92.31
2022-09-06T19:44:15.358Z,93.27
2022-09-06T19:46:46.185Z,94.64
2022-09-06T19:49:15.310Z,93.45
2022-09-06T19:51:45.214Z,94.37
2022-09-06T19:54:15.570Z,94.11
2022-09-06T19:56:44.478Z,94.51
2022-09-06T19:59:13.449Z,94.20
2022-09-06T20:01:43.214Z,94.29
2022-09-06T20:04:13.008Z,94.08
2022-09-06T20:06:41.267Z,94.57
2022-09-06T20:09:10.622Z,93.65
2022-09-06T20:11:41.349Z,94.30
2022-09-06T20:14:09.876Z,94.63
2022-09-06T20:16:41.710Z,93.53
2022-09-06T20:19:12.979Z,93.59
2022-09-06T20:21:41.301Z,93.70
2022-09-06T20:24:09.570Z,93.36
2022-09-06T20:26:38.886Z,93.48
2022-09-06T20:29:07.955Z,94.00
2022-09-06T20:31:37.872Z,94.99
2022-09-06T20:34:07.394Z,95.25
2022-09-06T20:36:35.581Z,95.47
2022-09-06T20:39:04.893Z,95.90
2022-09-06T20:41:33.724Z,96.12
2022-09-06T20:44:03.684Z,96.22
2022-09-06T20:46:33.816Z,94.87
2022-09-06T20:49:04.749Z,94.98
2022-09-06T20:51:34.092Z,95.41
2022-09-06T20:54:02.759Z,95.51
2022-09-06T20:56:33.154Z,95.93
2022-09-06T20:59:04.585Z,95.83
2022-09-06T21:01:36.017Z,96.06
2022-09-06T21:04:05.994Z,96.22
2022-09-06T21:06:35.536Z,96.93
2022-09-06T21:09:04.801Z,97.34
2022-09-06T21:11:33.160Z,97.24
2022-09-06T21:14:01.259Z,97.60
2022-09-06T21:16:31.417Z,97.69
2022-09-06T21:19:01.413Z,97.77
2022-09-06T21:21:30.961Z,97.88
2022-09-06T21:24:00.598Z,97.66
2022-09-06T21:26:28.533Z,97.53
2022-09-06T21:28:56.447Z,97.52
2022-09-06T21:31:25.909Z,97.46
2022-09-06T21:33:56.874Z,96.99
2022-09-06T21:36:29.155Z,97.27
2022-09-06T21:38:59.129Z,97.81
2022-09-06T21:41:28.079Z,97.26
2022-09-06T21:43:58.126Z,97.04
2022-09-06T21:46:32.315Z,96.84
2022-09-06T21:49:04.346Z,96.83
2022-09-06T21:51:33.457Z,96.34
2022-09-06T21:54:04.796Z,96.48
2022-09-06T21:56:33.886Z,96.66
2022-09-06T21:59:01.910Z,96.50
2022-09-06T22:01:32.619Z,96.91
2022-09-06T22:04:02.281Z,96.75
2022-09-06T22:06:32.119Z,96.97
2022-09-06T22:09:01.801Z,97.01
2022-09-06T22:11:31.943Z,96.83
2022-09-06T22:14:00.877Z,97.61
2022-09-06T22:16:29.450Z,97.59
2022-09-06T22:21:45.467Z,97.17
2022-09-06T22:24:14.243Z,97.19
2022-09-06T22:26:43.061Z,97.47
2022-09-06T22:29:13.596Z,97.33
2022-09-06T22:31:41.903Z,97.66
2022-09-06T22:34:10.344Z,97.47
2022-09-06T22:36:39.002Z,97.38
2022-09-06T22:39:09.445Z,97.61
2022-09-06T22:41:37.831Z,97.73
2022-09-06T22:44:06.062Z,96.94
2022-09-06T22:46:34.388Z,96.87
2022-09-06T22:49:04.033Z,96.68
2022-09-06T22:51:32.062Z,97.37
2022-09-06T22:54:00.056Z,97.40
2022-09-06T22:56:29.358Z,96.99
2022-09-06T22:58:57.435Z,97.09
2022-09-06T23:01:25.932Z,96.88
2022-09-06T23:03:54.017Z,97.08
2022-09-06T23:06:22.374Z,97.01
2022-09-06T23:08:50.366Z,96.90
2022-09-06T23:11:19.662Z,96.84
2022-09-06T23:13:48.937Z,96.96
2022-09-06T23:16:19.626Z,97.91
2022-09-06T23:18:48.450Z,96.96
2022-09-06T23:21:19.423Z,96.70
2022-09-06T23:23:48.257Z,96.66
2022-09-06T23:26:17.809Z,96.89
2022-09-06T23:28:45.979Z,96.42
2022-09-06T23:31:16.757Z,95.45
2022-09-06T23:33:45.304Z,95.95
2022-09-06T23:36:14.689Z,96.79
2022-09-06T23:38:43.706Z,96.09
2022-09-06T23:41:12.234Z,96.45
2022-09-06T23:43:41.653Z,96.80
2022-09-06T23:46:11.285Z,96.22
2022-09-06T23:48:40.965Z,96.65
2022-09-06T23:51:09.152Z,95.80
2022-09-06T23:53:37.345Z,95.50
2022-09-06T23:56:05.769Z,95.58
2022-09-06T23:58:33.837Z,95.84
